sensor_id;sensor_type;location;lat;lon;timestamp;P1;durP1;ratioP1;P2;durP2;ratioP2
71977;SDS011;59848;48.158;11.512;2022-09-09T00:03:53;2.42;;;1.38;;
71977;SDS011;59848;48.158;11.512;2022-09-09T00:06:26;2.38;;;1.30;;
71977;SDS011;59848;48.158;11.512;2022-09-09T00:09:04;2.57;;;1.30;;
71977;SDS011;59848;48.158;11.512;2022-09-09T00:11:44;2.63;;;1.40;;
71977;SDS011;59848;48.158;11.512;2022-09-09T00:17:04;3.53;;;1.50;;
71977;SDS011;59848;48.158;11.512;2022-09-09T00:22:16;2.30;;;1.30;;
71977;SDS011;59848;48.158;11.512;2022-09-09T00:24:53;3.25;;;1.55;;
71977;SDS011;59848;48.158;11.512;2022-09-09T00:27:25;2.95;;;1.40;;
71977;SDS011;59848;48.158;11.512;2022-09-09T00:33:00;2.65;;;1.52;;
71977;SDS011;59848;48.158;11.512;2022-09-09T00:35:34;2.72;;;1.60;;
71977;SDS011;59848;48.158;11.512;2022-09-09T00:40:53;2.75;;;1.30;;
71977;SDS011;59848;48.158;11.512;2022-09-09T00:43:37;3.63;;;1.40;;
71977;SDS011;59848;48.158;11.512;2022-09-09T00:51:37;3.55;;;1.42;;
71977;SDS011;59848;48.158;11.512;2022-09-09T00:59:46;2.28;;;1.40;;
71977;SDS011;59848;48.158;11.512;2022-09-09T01:02:36;2.00;;;1.50;;
71977;SDS011;59848;48.158;11.512;2022-09-09T01:05:07;2.90;;;1.40;;
71977;SDS011;59848;48.158;11.512;2022-09-09T01:07:44;2.22;;;1.33;;
71977;SDS011;59848;48.158;11.512;2022-09-09T01:10:26;2.10;;;1.40;;
71977;SDS011;59848;48.158;11.512;2022-09-09T01:13:27;2.65;;;1.67;;
71977;SDS011;59848;48.158;11.512;2022-09-09T01:15:56;2.78;;;1.50;;
71977;SDS011;59848;48.158;11.512;2022-09-09T01:18:26;2.90;;;1.48;;
71977;SDS011;59848;48.158;11.512;2022-09-09T01:20:59;2.20;;;1.40;;
71977;SDS011;59848;48.158;11.512;2022-09-09T01:23:49;2.45;;;1.40;;
71977;SDS011;59848;48.158;11.512;2022-09-09T01:28:49;2.58;;;1.70;;
71977;SDS011;59848;48.158;11.512;2022-09-09T01:31:22;2.80;;;1.60;;
71977;SDS011;59848;48.158;11.512;2022-09-09T01:33:53;2.65;;;1.40;;
71977;SDS011;59848;48.158;11.512;2022-09-09T01:36:26;2.05;;;1.70;;
71977;SDS011;59848;48.158;11.512;2022-09-09T01:38:58;1.63;;;1.30;;
71977;SDS011;59848;48.158;11.512;2022-09-09T01:41:24;3.45;;;1.65;;
71977;SDS011;59848;48.158;11.512;2022-09-09T01:43:50;2.40;;;1.48;;
71977;SDS011;59848;48.158;11.512;2022-09-09T01:46:16;2.83;;;1.50;;
71977;SDS011;59848;48.158;11.512;2022-09-09T01:48:43;3.05;;;1.40;;
71977;SDS011;59848;48.158;11.512;2022-09-09T01:51:10;3.22;;;1.55;;
71977;SDS011;59848;48.158;11.512;2022-09-09T01:53:36;2.53;;;1.80;;
71977;SDS011;59848;48.158;11.512;2022-09-09T01:58:34;3.80;;;1.50;;
71977;SDS011;59848;48.158;11.512;2022-09-09T02:01:46;3.30;;;1.33;;
71977;SDS011;59848;48.158;11.512;2022-09-09T02:06:56;3.47;;;1.20;;
71977;SDS011;59848;48.158;11.512;2022-09-09T02:09:25;4.20;;;1.40;;
71977;SDS011;59848;48.158;11.512;2022-09-09T02:12:00;2.65;;;1.58;;
71977;SDS011;59848;48.158;11.512;2022-09-09T02:14:34;3.05;;;1.38;;
71977;SDS011;59848;48.158;11.512;2022-09-09T02:17:10;2.90;;;1.45;;
71977;SDS011;59848;48.158;11.512;2022-09-09T02:19:43;2.60;;;1.50;;
71977;SDS011;59848;48.158;11.512;2022-09-09T02:22:13;4.18;;;1.50;;
71977;SDS011;59848;48.158;11.512;2022-09-09T02:24:44;3.53;;;1.45;;
71977;SDS011;59848;48.158;11.512;2022-09-09T02:27:11;3.35;;;1.30;;
71977;SDS011;59848;48.158;11.512;2022-09-09T02:29:40;2.40;;;1.40;;
71977;SDS011;59848;48.158;11.512;2022-09-09T02:32:14;2.33;;;1.42;;
71977;SDS011;59848;48.158;11.512;2022-09-09T02:34:43;4.47;;;1.60;;
71977;SDS011;59848;48.158;11.512;2022-09-09T02:37:14;4.38;;;1.38;;
71977;SDS011;59848;48.158;11.512;2022-09-09T02:39:43;2.22;;;1.50;;
71977;SDS011;59848;48.158;11.512;2022-09-09T02:42:09;3.83;;;1.40;;
71977;SDS011;59848;48.158;11.512;2022-09-09T02:44:35;2.00;;;1.30;;
71977;SDS011;59848;48.158;11.512;2022-09-09T02:58:18;3.03;;;1.40;;
71977;SDS011;59848;48.158;11.512;2022-09-09T03:00:48;5.63;;;1.60;;
71977;SDS011;59848;48.158;11.512;2022-09-09T03:03:15;2.33;;;1.40;;
71977;SDS011;59848;48.158;11.512;2022-09-09T03:05:43;3.42;;;1.80;;
71977;SDS011;59848;48.158;11.512;2022-09-09T03:08:09;1.92;;;1.63;;
71977;SDS011;59848;48.158;11.512;2022-09-09T03:10:35;3.33;;;1.40;;
71977;SDS011;59848;48.158;11.512;2022-09-09T03:13:02;3.45;;;1.63;;
71977;SDS011;59848;48.158;11.512;2022-09-09T03:15:29;6.30;;;1.65;;
71977;SDS011;59848;48.158;11.512;2022-09-09T03:17:56;4.00;;;1.83;;
71977;SDS011;59848;48.158;11.512;2022-09-09T03:20:23;3.03;;;1.58;;
71977;SDS011;59848;48.158;11.512;2022-09-09T03:22:50;2.25;;;1.40;;
71977;SDS011;59848;48.158;11.512;2022-09-09T03:25:19;2.03;;;1.33;;
71977;SDS011;59848;48.158;11.512;2022-09-09T03:27:45;3.95;;;1.70;;
71977;SDS011;59848;48.158;11.512;2022-09-09T03:30:11;3.25;;;1.60;;
71977;SDS011;59848;48.158;11.512;2022-09-09T03:32:37;4.90;;;1.80;;
71977;SDS011;59848;48.158;11.512;2022-09-09T03:35:03;5.65;;;2.15;;
71977;SDS011;59848;48.158;11.512;2022-09-09T03:37:29;3.10;;;1.60;;
71977;SDS011;59848;48.158;11.512;2022-09-09T03:39:54;3.55;;;1.70;;
71977;SDS011;59848;48.158;11.512;2022-09-09T03:42:20;2.38;;;1.38;;
71977;SDS011;59848;48.158;11.512;2022-09-09T03:44:46;3.72;;;1.80;;
71977;SDS011;59848;48.158;11.512;2022-09-09T03:47:14;3.00;;;1.50;;
71977;SDS011;59848;48.158;11.512;2022-09-09T03:49:44;3.08;;;1.63;;
71977;SDS011;59848;48.158;11.512;2022-09-09T03:52:10;3.20;;;1.65;;
71977;SDS011;59848;48.158;11.512;2022-09-09T03:54:36;5.05;;;1.48;;
71977;SDS011;59848;48.158;11.512;2022-09-09T03:57:02;2.58;;;1.42;;
71977;SDS011;59848;48.158;11.512;2022-09-09T03:59:29;2.85;;;1.30;;
71977;SDS011;59848;48.158;11.512;2022-09-09T04:01:56;3.00;;;1.52;;
71977;SDS011;59848;48.158;11.512;2022-09-09T04:04:24;5.15;;;2.15;;
71977;SDS011;59848;48.158;11.512;2022-09-09T04:06:51;3.22;;;1.60;;
71977;SDS011;59848;48.158;11.512;2022-09-09T04:09:17;3.08;;;1.50;;
71977;SDS011;59848;48.158;11.512;2022-09-09T04:11:43;3.13;;;1.55;;
71977;SDS011;59848;48.158;11.512;2022-09-09T04:14:08;2.60;;;1.50;;
71977;SDS011;59848;48.158;11.512;2022-09-09T04:16:34;1.92;;;1.30;;
71977;SDS011;59848;48.158;11.512;2022-09-09T04:19:01;2.00;;;1.33;;
71977;SDS011;59848;48.158;11.512;2022-09-09T04:21:29;3.67;;;1.50;;
71977;SDS011;59848;48.158;11.512;2022-09-09T04:23:55;2.95;;;1.35;;
71977;SDS011;59848;48.158;11.512;2022-09-09T04:26:20;3.08;;;1.50;;
71977;SDS011;59848;48.158;11.512;2022-09-09T04:28:46;2.55;;;1.55;;
71977;SDS011;59848;48.158;11.512;2022-09-09T04:31:19;2.90;;;1.60;;
71977;SDS011;59848;48.158;11.512;2022-09-09T04:33:48;3.60;;;1.58;;
71977;SDS011;59848;48.158;11.512;2022-09-09T04:36:14;3.20;;;1.77;;
71977;SDS011;59848;48.158;11.512;2022-09-09T04:38:40;6.30;;;2.10;;
71977;SDS011;59848;48.158;11.512;2022-09-09T04:41:06;3.67;;;1.30;;
71977;SDS011;59848;48.158;11.512;2022-09-09T04:43:32;2.40;;;1.50;;
71977;SDS011;59848;48.158;11.512;2022-09-09T04:45:58;3.00;;;1.23;;
71977;SDS011;59848;48.158;11.512;2022-09-09T04:48:24;2.35;;;1.55;;
71977;SDS011;59848;48.158;11.512;2022-09-09T04:51:06;3.03;;;1.20;;
71977;SDS011;59848;48.158;11.512;2022-09-09T04:53:34;2.22;;;1.40;;
71977;SDS011;59848;48.158;11.512;2022-09-09T04:58:40;7.07;;;2.50;;
71977;SDS011;59848;48.158;11.512;2022-09-09T05:01:11;2.17;;;1.50;;
71977;SDS011;59848;48.158;11.512;2022-09-09T05:03:38;2.35;;;1.58;;
71977;SDS011;59848;48.158;11.512;2022-09-09T05:06:05;2.15;;;1.42;;
71977;SDS011;59848;48.158;11.512;2022-09-09T05:08:33;2.25;;;1.50;;
71977;SDS011;59848;48.158;11.512;2022-09-09T05:10:59;4.97;;;1.80;;
71977;SDS011;59848;48.158;11.512;2022-09-09T05:13:25;2.88;;;1.33;;
71977;SDS011;59848;48.158;11.512;2022-09-09T05:15:54;2.13;;;1.42;;
71977;SDS011;59848;48.158;11.512;2022-09-09T05:18:20;3.90;;;1.58;;
71977;SDS011;59848;48.158;11.512;2022-09-09T05:20:47;3.03;;;1.80;;
71977;SDS011;59848;48.158;11.512;2022-09-09T05:23:14;4.72;;;1.70;;
71977;SDS011;59848;48.158;11.512;2022-09-09T05:25:39;4.15;;;1.90;;
71977;SDS011;59848;48.158;11.512;2022-09-09T05:28:05;3.78;;;1.48;;
71977;SDS011;59848;48.158;11.512;2022-09-09T05:30:32;3.17;;;1.52;;
71977;SDS011;59848;48.158;11.512;2022-09-09T05:32:58;2.42;;;1.50;;
71977;SDS011;59848;48.158;11.512;2022-09-09T05:35:24;4.07;;;1.83;;
71977;SDS011;59848;48.158;11.512;2022-09-09T05:37:50;2.88;;;1.30;;
71977;SDS011;59848;48.158;11.512;2022-09-09T05:40:15;2.10;;;1.50;;
71977;SDS011;59848;48.158;11.512;2022-09-09T05:42:41;3.80;;;1.80;;
71977;SDS011;59848;48.158;11.512;2022-09-09T05:45:07;4.97;;;1.50;;
71977;SDS011;59848;48.158;11.512;2022-09-09T05:47:34;2.75;;;1.40;;
71977;SDS011;59848;48.158;11.512;2022-09-09T05:50:02;2.63;;;1.27;;
71977;SDS011;59848;48.158;11.512;2022-09-09T05:52:28;2.38;;;1.30;;
71977;SDS011;59848;48.158;11.512;2022-09-09T05:54:53;4.95;;;1.30;;
71977;SDS011;59848;48.158;11.512;2022-09-09T05:57:21;2.10;;;1.20;;
71977;SDS011;59848;48.158;11.512;2022-09-09T05:59:46;1.75;;;1.38;;
71977;SDS011;59848;48.158;11.512;2022-09-09T06:02:12;4.35;;;1.58;;
71977;SDS011;59848;48.158;11.512;2022-09-09T06:04:38;2.15;;;1.30;;
71977;SDS011;59848;48.158;11.512;2022-09-09T06:07:04;2.58;;;1.25;;
71977;SDS011;59848;48.158;11.512;2022-09-09T06:09:30;2.50;;;1.50;;
71977;SDS011;59848;48.158;11.512;2022-09-09T06:11:56;3.08;;;1.23;;
71977;SDS011;59848;48.158;11.512;2022-09-09T06:14:23;3.28;;;1.30;;
71977;SDS011;59848;48.158;11.512;2022-09-09T06:16:49;3.22;;;1.50;;
71977;SDS011;59848;48.158;11.512;2022-09-09T06:19:14;2.92;;;1.17;;
71977;SDS011;59848;48.158;11.512;2022-09-09T06:21:40;3.75;;;1.10;;
71977;SDS011;59848;48.158;11.512;2022-09-09T06:24:06;3.92;;;1.23;;
71977;SDS011;59848;48.158;11.512;2022-09-09T06:26:36;3.22;;;1.50;;
71977;SDS011;59848;48.158;11.512;2022-09-09T06:29:05;2.55;;;1.10;;
71977;SDS011;59848;48.158;11.512;2022-09-09T06:31:32;2.08;;;1.02;;
71977;SDS011;59848;48.158;11.512;2022-09-09T06:33:59;1.63;;;1.10;;
71977;SDS011;59848;48.158;11.512;2022-09-09T06:36:30;1.80;;;1.30;;
71977;SDS011;59848;48.158;11.512;2022-09-09T06:38:58;1.83;;;1.23;;
71977;SDS011;59848;48.158;11.512;2022-09-09T06:41:24;1.98;;;1.23;;
71977;SDS011;59848;48.158;11.512;2022-09-09T06:43:54;3.65;;;1.50;;
71977;SDS011;59848;48.158;11.512;2022-09-09T06:46:23;1.95;;;1.10;;
71977;SDS011;59848;48.158;11.512;2022-09-09T06:48:53;2.38;;;1.20;;
71977;SDS011;59848;48.158;11.512;2022-09-09T06:51:25;3.83;;;1.45;;
71977;SDS011;59848;48.158;11.512;2022-09-09T06:53:57;2.17;;;1.10;;
71977;SDS011;59848;48.158;11.512;2022-09-09T06:56:28;1.63;;;1.20;;
71977;SDS011;59848;48.158;11.512;2022-09-09T06:58:57;4.10;;;1.98;;
71977;SDS011;59848;48.158;11.512;2022-09-09T07:01:26;3.75;;;1.23;;
71977;SDS011;59848;48.158;11.512;2022-09-09T07:03:59;2.92;;;1.45;;
71977;SDS011;59848;48.158;11.512;2022-09-09T07:06:30;1.20;;;1.02;;
71977;SDS011;59848;48.158;11.512;2022-09-09T07:09:00;3.95;;;1.27;;
71977;SDS011;59848;48.158;11.512;2022-09-09T07:11:31;2.38;;;1.05;;
71977;SDS011;59848;48.158;11.512;2022-09-09T07:13:59;2.97;;;0.98;;
71977;SDS011;59848;48.158;11.512;2022-09-09T07:16:26;1.38;;;0.70;;
71977;SDS011;59848;48.158;11.512;2022-09-09T07:18:52;2.83;;;1.40;;
71977;SDS011;59848;48.158;11.512;2022-09-09T07:21:23;2.08;;;1.17;;
71977;SDS011;59848;48.158;11.512;2022-09-09T07:23:51;2.60;;;1.05;;
71977;SDS011;59848;48.158;11.512;2022-09-09T07:26:18;2.17;;;1.20;;
71977;SDS011;59848;48.158;11.512;2022-09-09T07:28:46;3.03;;;1.00;;
71977;SDS011;59848;48.158;11.512;2022-09-09T07:31:13;2.60;;;1.20;;
71977;SDS011;59848;48.158;11.512;2022-09-09T07:33:44;2.15;;;1.30;;
71977;SDS011;59848;48.158;11.512;2022-09-09T07:36:17;3.25;;;1.38;;
71977;SDS011;59848;48.158;11.512;2022-09-09T07:38:49;2.28;;;1.27;;
71977;SDS011;59848;48.158;11.512;2022-09-09T07:41:19;3.55;;;1.10;;
71977;SDS011;59848;48.158;11.512;2022-09-09T07:43:47;2.10;;;1.00;;
71977;SDS011;59848;48.158;11.512;2022-09-09T07:46:15;2.35;;;1.10;;
71977;SDS011;59848;48.158;11.512;2022-09-09T07:48:47;2.60;;;1.20;;
71977;SDS011;59848;48.158;11.512;2022-09-09T07:51:18;3.75;;;1.05;;
71977;SDS011;59848;48.158;11.512;2022-09-09T07:53:47;2.58;;;0.85;;
71977;SDS011;59848;48.158;11.512;2022-09-09T07:56:15;2.60;;;1.20;;
71977;SDS011;59848;48.158;11.512;2022-09-09T07:58:44;1.98;;;1.13;;
71977;SDS011;59848;48.158;11.512;2022-09-09T08:01:15;1.85;;;1.00;;
71977;SDS011;59848;48.158;11.512;2022-09-09T08:06:10;1.95;;;0.93;;
71977;SDS011;59848;48.158;11.512;2022-09-09T08:08:37;1.55;;;1.02;;
71977;SDS011;59848;48.158;11.512;2022-09-09T08:11:11;1.40;;;0.95;;
71977;SDS011;59848;48.158;11.512;2022-09-09T08:13:39;2.17;;;1.00;;
71977;SDS011;59848;48.158;11.512;2022-09-09T08:16:16;2.88;;;1.00;;
71977;SDS011;59848;48.158;11.512;2022-09-09T08:18:44;4.65;;;1.20;;
71977;SDS011;59848;48.158;11.512;2022-09-09T08:21:13;2.47;;;0.90;;
71977;SDS011;59848;48.158;11.512;2022-09-09T08:23:43;2.28;;;1.20;;
71977;SDS011;59848;48.158;11.512;2022-09-09T08:28:49;4.50;;;1.40;;
71977;SDS011;59848;48.158;11.512;2022-09-09T08:31:21;4.40;;;1.60;;
71977;SDS011;59848;48.158;11.512;2022-09-09T08:33:58;2.38;;;1.33;;
71977;SDS011;59848;48.158;11.512;2022-09-09T08:36:25;3.10;;;1.35;;
71977;SDS011;59848;48.158;11.512;2022-09-09T08:38:54;5.95;;;1.45;;
71977;SDS011;59848;48.158;11.512;2022-09-09T08:52:39;4.97;;;2.25;;
71977;SDS011;59848;48.158;11.512;2022-09-09T08:58:26;4.45;;;2.20;;
71977;SDS011;59848;48.158;11.512;2022-09-09T09:03:25;6.13;;;2.45;;
71977;SDS011;59848;48.158;11.512;2022-09-09T09:06:10;4.45;;;2.20;;
71977;SDS011;59848;48.158;11.512;2022-09-09T09:11:57;4.18;;;2.40;;
71977;SDS011;59848;48.158;11.512;2022-09-09T09:14:28;2.13;;;1.63;;
71977;SDS011;59848;48.158;11.512;2022-09-09T09:16:56;3.47;;;1.00;;
71977;SDS011;59848;48.158;11.512;2022-09-09T09:19:24;1.40;;;1.00;;
71977;SDS011;59848;48.158;11.512;2022-09-09T09:24:47;2.58;;;1.23;;
71977;SDS011;59848;48.158;11.512;2022-09-09T09:29:59;2.78;;;1.65;;
71977;SDS011;59848;48.158;11.512;2022-09-09T09:32:31;3.95;;;1.23;;
71977;SDS011;59848;48.158;11.512;2022-09-09T09:35:00;2.00;;;1.15;;
71977;SDS011;59848;48.158;11.512;2022-09-09T09:37:33;5.57;;;1.25;;
71977;SDS011;59848;48.158;11.512;2022-09-09T09:40:11;1.85;;;0.90;;
71977;SDS011;59848;48.158;11.512;2022-09-09T09:42:58;2.80;;;1.10;;
71977;SDS011;59848;48.158;11.512;2022-09-09T09:45:43;3.03;;;1.00;;
71977;SDS011;59848;48.158;11.512;2022-09-09T09:48:13;1.85;;;0.90;;
71977;SDS011;59848;48.158;11.512;2022-09-09T09:50:49;2.03;;;0.95;;
71977;SDS011;59848;48.158;11.512;2022-09-09T09:53:32;3.45;;;1.10;;
71977;SDS011;59848;48.158;11.512;2022-09-09T09:56:00;1.80;;;1.00;;
71977;SDS011;59848;48.158;11.512;2022-09-09T09:58:33;1.98;;;1.00;;
71977;SDS011;59848;48.158;11.512;2022-09-09T10:01:22;3.53;;;1.00;;
71977;SDS011;59848;48.158;11.512;2022-09-09T10:03:57;2.05;;;1.20;;
71977;SDS011;59848;48.158;11.512;2022-09-09T10:06:34;3.08;;;1.20;;
71977;SDS011;59848;48.158;11.512;2022-09-09T10:09:03;6.78;;;1.42;;
71977;SDS011;59848;48.158;11.512;2022-09-09T10:18:12;2.55;;;1.52;;
71977;SDS011;59848;48.158;11.512;2022-09-09T10:20:16;4.55;;;1.25;;
71977;SDS011;59848;48.158;11.512;2022-09-09T10:23:17;3.28;;;1.40;;
71977;SDS011;59848;48.158;11.512;2022-09-09T10:31:37;3.63;;;1.27;;
71977;SDS011;59848;48.158;11.512;2022-09-09T10:37:13;2.28;;;1.20;;
71977;SDS011;59848;48.158;11.512;2022-09-09T10:39:55;2.95;;;1.10;;
71977;SDS011;59848;48.158;11.512;2022-09-09T10:42:30;1.80;;;1.20;;
71977;SDS011;59848;48.158;11.512;2022-09-09T10:45:10;3.85;;;1.38;;
71977;SDS011;59848;48.158;11.512;2022-09-09T10:50:43;2.30;;;1.10;;
71977;SDS011;59848;48.158;11.512;2022-09-09T10:56:07;1.25;;;0.90;;
71977;SDS011;59848;48.158;11.512;2022-09-09T10:58:40;3.40;;;1.00;;
71977;SDS011;59848;48.158;11.512;2022-09-09T11:01:22;2.17;;;0.80;;
71977;SDS011;59848;48.158;11.512;2022-09-09T11:03:53;1.38;;;1.02;;
71977;SDS011;59848;48.158;11.512;2022-09-09T11:06:25;1.30;;;0.90;;
71977;SDS011;59848;48.158;11.512;2022-09-09T11:08:55;1.00;;;0.90;;
71977;SDS011;59848;48.158;11.512;2022-09-09T11:11:26;1.02;;;0.77;;
71977;SDS011;59848;48.158;11.512;2022-09-09T11:14:19;2.80;;;0.98;;
71977;SDS011;59848;48.158;11.512;2022-09-09T11:17:01;1.33;;;0.70;;
71977;SDS011;59848;48.158;11.512;2022-09-09T11:19:34;1.95;;;0.73;;
71977;SDS011;59848;48.158;11.512;2022-09-09T11:22:12;1.88;;;0.80;;
71977;SDS011;59848;48.158;11.512;2022-09-09T11:27:16;1.63;;;0.95;;
71977;SDS011;59848;48.158;11.512;2022-09-09T11:30:01;1.42;;;0.80;;
71977;SDS011;59848;48.158;11.512;2022-09-09T11:40:58;1.63;;;0.60;;
71977;SDS011;59848;48.158;11.512;2022-09-09T11:43:28;2.45;;;0.70;;
71977;SDS011;59848;48.158;11.512;2022-09-09T11:45:58;2.50;;;0.90;;
71977;SDS011;59848;48.158;11.512;2022-09-09T11:48:40;1.40;;;0.63;;
71977;SDS011;59848;48.158;11.512;2022-09-09T11:51:12;1.20;;;0.60;;
71977;SDS011;59848;48.158;11.512;2022-09-09T11:53:51;0.90;;;0.57;;
71977;SDS011;59848;48.158;11.512;2022-09-09T11:59:03;2.45;;;0.90;;
71977;SDS011;59848;48.158;11.512;2022-09-09T12:06:54;1.10;;;0.90;;
71977;SDS011;59848;48.158;11.512;2022-09-09T12:14:59;2.03;;;0.90;;
71977;SDS011;59848;48.158;11.512;2022-09-09T12:17:52;0.63;;;0.60;;
71977;SDS011;59848;48.158;11.512;2022-09-09T12:34:55;1.55;;;0.70;;
71977;SDS011;59848;48.158;11.512;2022-09-09T12:40:27;2.28;;;1.27;;
71977;SDS011;59848;48.158;11.512;2022-09-09T12:42:46;1.67;;;0.95;;
71977;SDS011;59848;48.158;11.512;2022-09-09T12:45:31;1.63;;;0.80;;
71977;SDS011;59848;48.158;11.512;2022-09-09T12:48:05;2.50;;;0.80;;
71977;SDS011;59848;48.158;11.512;2022-09-09T12:50:35;1.38;;;0.75;;
71977;SDS011;59848;48.158;11.512;2022-09-09T12:55:55;1.33;;;0.82;;
71977;SDS011;59848;48.158;11.512;2022-09-09T13:00:50;0.90;;;0.60;;
71977;SDS011;59848;48.158;11.512;2022-09-09T13:03:20;1.88;;;0.73;;
71977;SDS011;59848;48.158;11.512;2022-09-09T13:05:47;1.60;;;0.70;;
71977;SDS011;59848;48.158;11.512;2022-09-09T13:08:33;1.77;;;0.85;;
71977;SDS011;59848;48.158;11.512;2022-09-09T13:11:00;1.15;;;0.60;;
71977;SDS011;59848;48.158;11.512;2022-09-09T13:13:30;0.90;;;0.60;;
71977;SDS011;59848;48.158;11.512;2022-09-09T13:16:02;1.60;;;0.77;;
71977;SDS011;59848;48.158;11.512;2022-09-09T13:18:31;0.98;;;0.60;;
71977;SDS011;59848;48.158;11.512;2022-09-09T13:20:59;2.00;;;0.80;;
71977;SDS011;59848;48.158;11.512;2022-09-09T13:23:31;1.58;;;0.60;;
71977;SDS011;59848;48.158;11.512;2022-09-09T13:26:18;1.00;;;0.88;;
71977;SDS011;59848;48.158;11.512;2022-09-09T13:28:49;2.25;;;0.90;;
71977;SDS011;59848;48.158;11.512;2022-09-09T13:31:42;0.98;;;0.50;;
71977;SDS011;59848;48.158;11.512;2022-09-09T13:34:22;1.83;;;0.60;;
71977;SDS011;59848;48.158;11.512;2022-09-09T13:36:52;0.82;;;0.50;;
71977;SDS011;59848;48.158;11.512;2022-09-09T13:39:26;1.40;;;0.60;;
71977;SDS011;59848;48.158;11.512;2022-09-09T13:41:52;1.73;;;0.70;;
71977;SDS011;59848;48.158;11.512;2022-09-09T13:44:24;2.42;;;0.70;;
71977;SDS011;59848;48.158;11.512;2022-09-09T13:49:31;1.35;;;0.90;;
71977;SDS011;59848;48.158;11.512;2022-09-09T13:52:08;1.15;;;0.50;;
71977;SDS011;59848;48.158;11.512;2022-09-09T13:54:35;2.05;;;0.55;;
71977;SDS011;59848;48.158;11.512;2022-09-09T13:57:00;0.82;;;0.50;;
71977;SDS011;59848;48.158;11.512;2022-09-09T13:59:26;1.77;;;0.95;;
71977;SDS011;59848;48.158;11.512;2022-09-09T14:01:52;1.00;;;0.50;;
71977;SDS011;59848;48.158;11.512;2022-09-09T14:04:18;1.48;;;0.70;;
71977;SDS011;59848;48.158;11.512;2022-09-09T14:06:46;0.80;;;0.50;;
71977;SDS011;59848;48.158;11.512;2022-09-09T14:09:14;2.13;;;0.60;;
71977;SDS011;59848;48.158;11.512;2022-09-09T14:11:41;2.50;;;0.73;;
71977;SDS011;59848;48.158;11.512;2022-09-09T14:14:08;1.73;;;0.60;;
71977;SDS011;59848;48.158;11.512;2022-09-09T14:16:34;0.82;;;0.40;;
71977;SDS011;59848;48.158;11.512;2022-09-09T14:19:00;3.40;;;0.80;;
71977;SDS011;59848;48.158;11.512;2022-09-09T14:21:26;1.55;;;0.60;;
71977;SDS011;59848;48.158;11.512;2022-09-09T14:23:53;1.80;;;0.60;;
71977;SDS011;59848;48.158;11.512;2022-09-09T14:26:19;2.50;;;1.00;;
71977;SDS011;59848;48.158;11.512;2022-09-09T14:28:46;1.70;;;0.60;;
71977;SDS011;59848;48.158;11.512;2022-09-09T14:31:12;1.08;;;0.63;;
71977;SDS011;59848;48.158;11.512;2022-09-09T14:33:42;1.83;;;0.52;;
71977;SDS011;59848;48.158;11.512;2022-09-09T14:36:08;0.63;;;0.50;;
71977;SDS011;59848;48.158;11.512;2022-09-09T14:38:35;1.05;;;0.50;;
71977;SDS011;59848;48.158;11.512;2022-09-09T14:41:06;2.92;;;0.70;;
71977;SDS011;59848;48.158;11.512;2022-09-09T14:43:34;2.45;;;0.80;;
71977;SDS011;59848;48.158;11.512;2022-09-09T14:46:14;1.90;;;0.70;;
71977;SDS011;59848;48.158;11.512;2022-09-09T14:48:41;3.75;;;0.60;;
71977;SDS011;59848;48.158;11.512;2022-09-09T14:51:09;1.30;;;0.60;;
71977;SDS011;59848;48.158;11.512;2022-09-09T14:53:38;3.00;;;0.80;;
71977;SDS011;59848;48.158;11.512;2022-09-09T14:56:26;1.85;;;0.70;;
71977;SDS011;59848;48.158;11.512;2022-09-09T14:58:54;2.95;;;0.60;;
71977;SDS011;59848;48.158;11.512;2022-09-09T15:01:21;3.60;;;0.68;;
71977;SDS011;59848;48.158;11.512;2022-09-09T15:03:51;1.50;;;0.60;;
71977;SDS011;59848;48.158;11.512;2022-09-09T15:06:23;1.20;;;0.65;;
71977;SDS011;59848;48.158;11.512;2022-09-09T15:08:50;1.88;;;0.75;;
71977;SDS011;59848;48.158;11.512;2022-09-09T15:11:17;3.33;;;0.73;;
71977;SDS011;59848;48.158;11.512;2022-09-09T15:13:43;1.77;;;0.80;;
71977;SDS011;59848;48.158;11.512;2022-09-09T15:16:10;2.25;;;0.73;;
71977;SDS011;59848;48.158;11.512;2022-09-09T15:18:38;2.70;;;0.80;;
71977;SDS011;59848;48.158;11.512;2022-09-09T15:21:14;2.65;;;0.60;;
71977;SDS011;59848;48.158;11.512;2022-09-09T15:23:41;1.20;;;0.87;;
71977;SDS011;59848;48.158;11.512;2022-09-09T15:26:07;0.73;;;0.50;;
71977;SDS011;59848;48.158;11.512;2022-09-09T15:28:33;3.75;;;0.70;;
71977;SDS011;59848;48.158;11.512;2022-09-09T15:33:47;2.15;;;0.50;;
71977;SDS011;59848;48.158;11.512;2022-09-09T15:36:24;1.73;;;0.70;;
71977;SDS011;59848;48.158;11.512;2022-09-09T15:38:51;1.40;;;0.50;;
71977;SDS011;59848;48.158;11.512;2022-09-09T15:41:18;2.10;;;0.70;;
71977;SDS011;59848;48.158;11.512;2022-09-09T15:43:45;2.20;;;0.52;;
71977;SDS011;59848;48.158;11.512;2022-09-09T15:46:29;2.22;;;0.73;;
71977;SDS011;59848;48.158;11.512;2022-09-09T15:49:02;3.22;;;0.80;;
71977;SDS011;59848;48.158;11.512;2022-09-09T15:51:37;1.40;;;0.60;;
71977;SDS011;59848;48.158;11.512;2022-09-09T15:54:04;3.40;;;0.95;;
71977;SDS011;59848;48.158;11.512;2022-09-09T15:56:30;3.03;;;0.70;;
71977;SDS011;59848;48.158;11.512;2022-09-09T15:58:57;3.05;;;0.80;;
71977;SDS011;59848;48.158;11.512;2022-09-09T16:01:25;2.05;;;0.70;;
71977;SDS011;59848;48.158;11.512;2022-09-09T16:03:51;2.83;;;0.75;;
71977;SDS011;59848;48.158;11.512;2022-09-09T16:06:18;1.77;;;0.82;;
71977;SDS011;59848;48.158;11.512;2022-09-09T16:08:47;1.98;;;0.90;;
71977;SDS011;59848;48.158;11.512;2022-09-09T16:11:21;1.30;;;0.70;;
71977;SDS011;59848;48.158;11.512;2022-09-09T16:13:49;2.30;;;0.60;;
71977;SDS011;59848;48.158;11.512;2022-09-09T16:16:17;2.10;;;0.70;;
71977;SDS011;59848;48.158;11.512;2022-09-09T16:18:47;3.17;;;0.85;;
71977;SDS011;59848;48.158;11.512;2022-09-09T16:21:18;2.28;;;0.68;;
71977;SDS011;59848;48.158;11.512;2022-09-09T16:23:46;1.80;;;0.70;;
71977;SDS011;59848;48.158;11.512;2022-09-09T16:26:14;2.13;;;0.85;;
71977;SDS011;59848;48.158;11.512;2022-09-09T16:28:40;1.02;;;0.60;;
71977;SDS011;59848;48.158;11.512;2022-09-09T16:31:07;5.28;;;1.00;;
71977;SDS011;59848;48.158;11.512;2022-09-09T16:33:35;1.55;;;0.63;;
71977;SDS011;59848;48.158;11.512;2022-09-09T16:36:11;1.27;;;0.75;;
71977;SDS011;59848;48.158;11.512;2022-09-09T16:38:39;1.77;;;0.50;;
71977;SDS011;59848;48.158;11.512;2022-09-09T16:41:05;3.40;;;0.75;;
71977;SDS011;59848;48.158;11.512;2022-09-09T16:43:32;1.65;;;0.63;;
71977;SDS011;59848;48.158;11.512;2022-09-09T16:45:59;1.45;;;0.70;;
71977;SDS011;59848;48.158;11.512;2022-09-09T16:48:31;1.13;;;0.65;;
71977;SDS011;59848;48.158;11.512;2022-09-09T16:51:03;3.80;;;1.00;;
71977;SDS011;59848;48.158;11.512;2022-09-09T16:53:31;1.90;;;1.00;;
71977;SDS011;59848;48.158;11.512;2022-09-09T16:55:57;1.27;;;0.70;;
71977;SDS011;59848;48.158;11.512;2022-09-09T16:58:32;1.23;;;0.70;;
71977;SDS011;59848;48.158;11.512;2022-09-09T17:00:58;2.95;;;0.82;;
71977;SDS011;59848;48.158;11.512;2022-09-09T17:03:25;2.35;;;0.60;;
71977;SDS011;59848;48.158;11.512;2022-09-09T17:05:51;1.80;;;0.75;;
71977;SDS011;59848;48.158;11.512;2022-09-09T17:08:16;3.33;;;0.65;;
71977;SDS011;59848;48.158;11.512;2022-09-09T17:10:42;2.67;;;1.10;;
71977;SDS011;59848;48.158;11.512;2022-09-09T17:13:08;1.48;;;0.80;;
71977;SDS011;59848;48.158;11.512;2022-09-09T17:15:33;3.70;;;1.05;;
71977;SDS011;59848;48.158;11.512;2022-09-09T17:18:05;2.70;;;0.70;;
71977;SDS011;59848;48.158;11.512;2022-09-09T17:20:34;1.92;;;0.80;;
71977;SDS011;59848;48.158;11.512;2022-09-09T17:23:04;1.73;;;0.90;;